Time;durP1;ratioP1;P1;durP2;ratioP2;P2;SDS_P1;SDS_P2;PMS_P1;PMS_P2;Temp;Humidity;BMP_temperature;BMP_pressure;BME280_temperature;BME280_humidity;BME280_pressure;Samples;Min_cycle;Max_cycle;Signal;HPM_P1;HPM_P2
2022/05/05 00:01:38;;;;;;;17.25;11.38;;;;;;;9.74;73.14;101911.13;5007883;28;20499;-84
2022/05/05 00:04:08;;;;;;;14.73;10.98;;;;;;;9.67;73.34;101907.16;5012528;28;20501;-83
2022/05/05 00:06:33;;;;;;;17.67;11.10;;;;;;;9.63;73.75;101912.66;4994412;28;20058;-83
2022/05/05 00:08:59;;;;;;;18.30;11.00;;;;;;;9.61;73.86;101914.50;5010828;28;20981;-84
2022/05/05 00:14:27;;;;;;;15.70;10.57;;;;;;;9.54;73.93;101913.09;4998550;28;20049;-83
2022/05/05 00:16:56;;;;;;;16.65;10.95;;;;;;;9.48;74.41;101910.81;4974159;28;20042;-83
2022/05/05 00:19:21;;;;;;;17.38;10.65;;;;;;;9.45;74.23;101916.22;5003867;28;20046;-84
2022/05/05 00:21:49;;;;;;;17.08;10.95;;;;;;;9.40;74.37;101916.47;4978362;28;20024;-83
2022/05/05 00:24:16;;;;;;;18.55;12.25;;;;;;;9.36;74.83;101910.53;4988105;28;20113;-87
2022/05/05 00:26:42;;;;;;;20.98;12.50;;;;;;;9.31;74.85;101916.94;4991789;28;20072;-83
2022/05/05 00:29:11;;;;;;;19.98;11.93;;;;;;;9.30;75.23;101910.84;4992287;28;20046;-83
2022/05/05 00:31:36;;;;;;;16.50;11.13;;;;;;;9.24;74.53;101919.03;4992403;28;20034;-83
2022/05/05 00:34:04;;;;;;;15.25;10.52;;;;;;;9.21;74.59;101927.06;5009713;28;20398;-83
2022/05/05 00:36:30;;;;;;;16.55;11.77;;;;;;;9.15;74.80;101916.84;5003562;28;20088;-83
2022/05/05 00:38:55;;;;;;;17.70;11.65;;;;;;;9.12;74.96;101914.38;5011018;28;20029;-83
2022/05/05 00:41:21;;;;;;;18.02;12.35;;;;;;;9.11;75.70;101910.91;5010721;28;20473;-83
2022/05/05 00:43:50;;;;;;;18.88;12.45;;;;;;;9.09;76.22;101912.78;5011110;28;20030;-84
2022/05/05 00:46:15;;;;;;;20.35;12.30;;;;;;;9.09;76.25;101910.16;5011596;28;20113;-83
2022/05/05 00:48:42;;;;;;;18.45;11.80;;;;;;;9.08;76.32;101907.59;4993886;28;20101;-83
2022/05/05 00:51:08;;;;;;;15.70;11.45;;;;;;;9.06;76.05;101912.94;5008438;28;20030;-83
2022/05/05 00:53:34;;;;;;;17.98;11.90;;;;;;;9.07;76.26;101914.63;4974948;28;20032;-84
2022/05/05 00:56:05;;;;;;;17.23;11.20;;;;;;;9.03;76.10;101906.97;4974397;28;20130;-84
2022/05/05 00:58:31;;;;;;;19.60;11.90;;;;;;;9.04;76.78;101908.69;4992397;28;20037;-84
2022/05/05 01:01:03;;;;;;;18.23;11.85;;;;;;;9.04;76.96;101911.31;4993330;28;20030;-84
2022/05/05 01:03:29;;;;;;;19.93;12.57;;;;;;;9.05;77.02;101915.63;4973699;28;20041;-84
2022/05/05 01:05:54;;;;;;;16.23;11.65;;;;;;;9.02;77.43;101911.38;5004308;28;20097;-84
2022/05/05 01:08:20;;;;;;;19.98;12.10;;;;;;;9.07;77.29;101919.03;4991997;28;20117;-85
2022/05/05 01:10:45;;;;;;;15.07;11.18;;;;;;;9.06;77.01;101912.94;5003821;28;20063;-84
2022/05/05 01:13:11;;;;;;;16.38;10.60;;;;;;;9.08;76.91;101915.47;4999952;28;20588;-85
2022/05/05 01:15:37;;;;;;;18.17;11.82;;;;;;;9.08;77.15;101908.44;5010974;28;20030;-85
2022/05/05 01:18:02;;;;;;;22.48;12.48;;;;;;;9.11;77.57;101915.31;4982612;28;20055;-85
2022/05/05 01:20:28;;;;;;;16.77;11.27;;;;;;;9.14;77.35;101914.31;4971407;28;20498;-85
2022/05/05 01:22:53;;;;;;;18.83;12.40;;;;;;;9.14;77.33;101909.91;4969070;28;20551;-85
2022/05/05 01:28:13;;;;;;;16.83;12.07;;;;;;;9.14;77.56;101902.03;4971196;28;20188;-85
2022/05/05 01:30:46;;;;;;;20.10;12.10;;;;;;;9.17;77.67;101907.13;4970772;28;20112;-85
2022/05/05 01:33:23;;;;;;;16.08;11.77;;;;;;;9.19;77.69;101909.66;4969825;28;20073;-84
2022/05/05 01:35:51;;;;;;;15.18;10.93;;;;;;;9.17;77.27;101908.91;4971230;28;20050;-85
2022/05/05 01:38:22;;;;;;;18.67;11.65;;;;;;;9.16;77.50;101901.94;4969000;28;20109;-85
2022/05/05 01:40:53;;;;;;;18.40;12.43;;;;;;;9.18;77.70;101910.59;4970025;28;20484;-84
2022/05/05 01:43:22;;;;;;;17.10;11.30;;;;;;;9.18;77.62;101903.56;4969855;28;20022;-85
2022/05/05 01:45:48;;;;;;;17.73;12.27;;;;;;;9.16;77.40;101902.81;4971421;28;20442;-85
2022/05/05 01:48:14;;;;;;;18.33;12.10;;;;;;;9.18;77.97;101900.94;4971475;28;20069;-85
2022/05/05 01:50:43;;;;;;;19.23;12.00;;;;;;;9.16;78.23;101908.06;4970916;28;20743;-85
2022/05/05 01:53:08;;;;;;;19.83;13.02;;;;;;;9.19;77.35;101907.03;4965637;28;20039;-85
2022/05/05 01:55:34;;;;;;;21.15;12.60;;;;;;;9.18;77.66;101914.06;4963402;28;20065;-85
2022/05/05 01:58:00;;;;;;;18.75;12.23;;;;;;;9.16;77.76;101918.56;4970464;28;20049;-85
2022/05/05 02:00:29;;;;;;;20.42;12.80;;;;;;;9.17;77.59;101917.63;4970835;28;20461;-85
2022/05/05 02:02:55;;;;;;;17.42;12.50;;;;;;;9.16;77.88;101912.44;4967269;28;20023;-85
2022/05/05 02:05:21;;;;;;;17.17;12.77;;;;;;;9.18;78.35;101916.69;4969842;28;20361;-85
2022/05/05 02:07:50;;;;;;;21.67;12.93;;;;;;;9.20;78.29;101919.25;4970426;28;20030;-85
2022/05/05 02:10:17;;;;;;;19.13;12.68;;;;;;;9.22;78.51;101918.28;4971643;28;20082;-84
2022/05/05 02:12:44;;;;;;;20.17;12.93;;;;;;;9.22;78.29;101918.28;4969239;28;20111;-85
2022/05/05 02:15:19;;;;;;;18.55;12.68;;;;;;;9.23;78.03;101919.97;4969830;28;20081;-85
2022/05/05 02:17:44;;;;;;;21.17;12.52;;;;;;;9.24;78.15;101921.66;4980434;28;20066;-85
2022/05/05 02:20:19;;;;;;;16.85;11.68;;;;;;;9.22;77.83;101917.41;4992402;28;20403;-86
2022/05/05 02:22:51;;;;;;;21.13;13.45;;;;;;;9.21;78.03;101916.56;5008765;28;20032;-84
2022/05/05 02:25:19;;;;;;;18.90;12.77;;;;;;;9.27;77.57;101918.03;5000283;28;20038;-85
2022/05/05 02:27:52;;;;;;;20.35;13.52;;;;;;;9.28;76.90;101920.56;4990260;28;20030;-85
2022/05/05 02:30:21;;;;;;;18.67;12.93;;;;;;;9.29;77.91;101918.78;4991179;28;20030;-85
2022/05/05 02:32:50;;;;;;;22.00;13.52;;;;;;;9.30;78.04;101916.09;4992283;28;20022;-85
2022/05/05 02:35:19;;;;;;;22.17;12.90;;;;;;;9.32;77.84;101918.63;5010152;28;20109;-85
2022/05/05 02:40:32;;;;;;;20.80;13.18;;;;;;;9.30;77.63;101918.72;5009918;28;20551;-85
2022/05/05 02:42:58;;;;;;;24.75;13.07;;;;;;;9.33;77.56;101920.34;5009370;28;20025;-84
2022/05/05 02:45:24;;;;;;;20.27;13.43;;;;;;;9.36;77.75;101920.19;5009590;28;20214;-85
2022/05/05 02:47:50;;;;;;;17.70;12.73;;;;;;;9.36;77.96;101918.41;5008815;28;20037;-85
2022/05/05 02:50:16;;;;;;;19.23;12.55;;;;;;;9.36;77.76;101918.41;5009695;28;20033;-85
2022/05/05 02:52:42;;;;;;;18.63;13.63;;;;;;;9.36;77.71;101925.44;5007661;28;20018;-85
2022/05/05 02:55:08;;;;;;;17.08;12.45;;;;;;;9.38;78.09;101924.41;4997593;28;20029;-85
2022/05/05 02:57:45;;;;;;;16.67;12.43;;;;;;;9.37;77.85;101925.34;5009838;28;20183;-85
2022/05/05 03:00:11;;;;;;;18.85;12.93;;;;;;;9.36;78.08;101917.56;4991979;28;20049;-85
2022/05/05 03:02:37;;;;;;;20.10;13.50;;;;;;;9.37;78.02;101920.09;5009216;28;20033;-85
2022/05/05 03:05:06;;;;;;;19.67;13.70;;;;;;;9.37;78.42;101919.25;4985775;28;20018;-85
2022/05/05 03:07:35;;;;;;;18.83;12.65;;;;;;;9.37;78.14;101916.63;4972781;28;20034;-85
2022/05/05 03:10:00;;;;;;;20.30;14.02;;;;;;;9.38;78.22;101908.66;4988883;28;20026;-85
2022/05/05 03:12:28;;;;;;;19.98;13.68;;;;;;;9.38;78.20;101913.91;4982800;28;20433;-85
2022/05/05 03:14:54;;;;;;;21.42;13.70;;;;;;;9.38;77.47;101905.19;5013013;28;20482;-85
2022/05/05 03:17:20;;;;;;;19.10;13.25;;;;;;;9.39;77.79;101914.75;5013604;28;20072;-85
2022/05/05 03:19:48;;;;;;;19.52;14.07;;;;;;;9.40;77.90;101914.69;4995492;28;20041;-85
2022/05/05 03:22:13;;;;;;;21.27;13.48;;;;;;;9.41;78.53;101919.00;5012886;28;20474;-85
2022/05/05 03:24:45;;;;;;;19.35;13.75;;;;;;;9.40;78.36;101917.31;5013133;28;20053;-85
2022/05/05 03:27:10;;;;;;;23.73;13.85;;;;;;;9.38;78.67;101920.94;5013362;28;20022;-85
2022/05/05 03:29:35;;;;;;;19.67;13.38;;;;;;;9.39;79.05;101917.38;5013328;28;20029;-85
2022/05/05 03:32:01;;;;;;;20.08;14.23;;;;;;;9.38;79.08;101929.69;5010407;28;20018;-85
2022/05/05 03:34:26;;;;;;;19.55;14.20;;;;;;;9.38;78.87;101928.81;4993741;28;20022;-85
2022/05/05 03:36:51;;;;;;;16.35;13.20;;;;;;;9.36;78.87;101920.19;4992836;28;20049;-85
2022/05/05 03:39:20;;;;;;;21.92;14.55;;;;;;;9.32;79.26;101924.75;5003935;28;20037;-85
2022/05/05 03:41:47;;;;;;;20.95;14.27;;;;;;;9.34;79.02;101928.13;5013485;28;20030;-85
2022/05/05 03:44:13;;;;;;;23.52;13.68;;;;;;;9.38;78.83;101927.03;5012687;28;20077;-85
2022/05/05 03:46:38;;;;;;;19.75;14.18;;;;;;;9.37;78.78;101927.97;5013515;28;20075;-85
2022/05/05 03:49:07;;;;;;;20.13;14.18;;;;;;;9.35;79.06;101921.97;5012714;28;20030;-88
2022/05/05 03:51:32;;;;;;;21.30;14.93;;;;;;;9.39;78.39;101926.13;5012512;28;20036;-85
2022/05/05 03:53:57;;;;;;;21.45;14.93;;;;;;;9.40;78.51;101932.22;4999777;28;20121;-85
2022/05/05 03:56:23;;;;;;;20.30;14.75;;;;;;;9.42;78.79;101936.47;5011917;28;20036;-85
2022/05/05 03:58:48;;;;;;;22.65;15.48;;;;;;;9.41;78.89;101941.78;4994238;28;20042;-85
2022/05/05 04:01:14;;;;;;;21.73;14.32;;;;;;;9.43;78.71;101947.81;4992832;28;20014;-85
2022/05/05 04:03:43;;;;;;;20.15;14.38;;;;;;;9.42;78.44;101946.13;5008106;28;20601;-85
2022/05/05 04:06:20;;;;;;;;;;;;;;;;;;;;;
2022/05/05 04:08:48;;;;;;;20.50;14.35;;;;;;;9.46;78.30;101944.19;4976102;28;20030;-86
2022/05/05 04:11:14;;;;;;;20.58;14.45;;;;;;;9.48;78.41;101944.94;4974538;28;20026;-85
2022/05/05 04:13:39;;;;;;;26.95;15.52;;;;;;;9.49;78.61;101947.50;5004912;28;20030;-85
2022/05/05 04:16:11;;;;;;;25.15;14.90;;;;;;;9.51;78.89;101956.16;4990745;28;20125;-85
2022/05/05 04:18:36;;;;;;;21.63;15.23;;;;;;;9.50;78.79;101953.59;4990813;28;20183;-85
2022/05/05 04:21:02;;;;;;;19.38;14.63;;;;;;;9.54;78.59;101957.75;4992338;28;20105;-85
2022/05/05 04:23:30;;;;;;;24.35;15.80;;;;;;;9.55;78.65;101954.22;4991862;28;20022;-85
2022/05/05 04:25:59;;;;;;;24.40;16.05;;;;;;;9.55;78.54;101952.44;4974119;28;20026;-86
2022/05/05 04:28:27;;;;;;;24.63;16.02;;;;;;;9.59;78.01;101959.22;4996637;28;20018;-85
2022/05/05 04:30:53;;;;;;;27.30;16.45;;;;;;;9.60;77.89;101957.44;5011495;28;20053;-85
2022/05/05 04:33:18;;;;;;;24.10;16.27;;;;;;;9.61;77.78;101957.41;5011193;28;20030;-85
2022/05/05 04:35:44;;;;;;;22.15;15.73;;;;;;;9.61;77.66;101961.81;5011992;28;20080;-85
2022/05/05 04:38:13;;;;;;;23.98;16.52;;;;;;;9.62;77.42;101968.75;5011708;28;20021;-85
2022/05/05 04:40:38;;;;;;;20.27;15.30;;;;;;;9.66;78.03;101965.03;5011337;28;20037;-85
2022/05/05 04:43:03;;;;;;;23.23;15.65;;;;;;;9.66;77.83;101959.78;4993992;28;20343;-85
2022/05/05 04:45:29;;;;;;;23.88;15.48;;;;;;;9.69;78.17;101967.50;5011968;28;20505;-85
2022/05/05 04:47:55;;;;;;;24.95;15.35;;;;;;;9.71;78.18;101968.28;5010977;28;20449;-84
2022/05/05 04:50:20;;;;;;;21.63;15.60;;;;;;;9.72;77.86;101959.44;4993316;28;20033;-84
2022/05/05 04:52:45;;;;;;;22.50;15.63;;;;;;;9.77;78.28;101969.72;5010410;28;20033;-84
2022/05/05 04:55:14;;;;;;;25.30;15.60;;;;;;;9.77;78.25;101965.31;4991723;28;20049;-83
2022/05/05 04:57:45;;;;;;;25.52;15.88;;;;;;;9.80;78.26;101973.03;4991961;28;20270;-84
2022/05/05 05:00:11;;;;;;;25.48;15.10;;;;;;;9.79;78.57;101971.34;5007020;28;20037;-84
2022/05/05 05:02:36;;;;;;;22.35;15.32;;;;;;;9.76;78.81;101971.50;4992654;28;20410;-85
2022/05/05 05:05:02;;;;;;;26.95;15.88;;;;;;;9.77;79.14;101978.47;5010506;28;20018;-85
2022/05/05 05:07:27;;;;;;;25.77;16.50;;;;;;;9.78;79.45;101982.78;5009773;28;20034;-85
2022/05/05 05:09:53;;;;;;;22.48;14.75;;;;;;;9.78;79.99;101980.16;4993221;28;20485;-85
2022/05/05 05:12:18;;;;;;;23.90;15.63;;;;;;;9.80;80.19;101988.81;4992005;28;20067;-84
2022/05/05 05:14:46;;;;;;;22.35;14.52;;;;;;;9.83;79.90;101987.78;4997885;28;20053;-84
2022/05/05 05:17:12;;;;;;;20.85;15.07;;;;;;;9.82;80.17;101992.19;5010400;28;20093;-84
2022/05/05 05:19:40;;;;;;;21.30;15.00;;;;;;;9.85;80.23;101996.44;5007346;28;20129;-84
2022/05/05 05:22:06;;;;;;;23.85;15.52;;;;;;;9.87;80.53;101992.81;4996342;28;20080;-84
2022/05/05 05:24:32;;;;;;;24.58;14.88;;;;;;;9.86;80.67;101996.38;4993131;28;20482;-84
2022/05/05 05:26:57;;;;;;;24.52;16.13;;;;;;;9.89;79.69;102001.47;5009512;28;20038;-84
2022/05/05 05:29:23;;;;;;;24.73;15.93;;;;;;;9.91;80.49;102002.22;4992385;28;20375;-84
2022/05/05 05:31:48;;;;;;;19.42;15.90;;;;;;;9.94;80.12;102004.69;5010630;28;20068;-84
2022/05/05 05:34:13;;;;;;;22.15;16.35;;;;;;;9.97;80.19;102007.16;4992660;28;20133;-84
2022/05/05 05:36:39;;;;;;;22.10;16.00;;;;;;;9.99;79.80;102005.28;4991341;28;20060;-85
2022/05/05 05:39:04;;;;;;;22.58;16.98;;;;;;;10.01;79.84;102013.97;4992782;28;20072;-85
2022/05/05 05:41:40;;;;;;;23.17;16.33;;;;;;;10.07;79.42;102010.16;4993319;28;20115;-84
2022/05/05 05:44:05;;;;;;;23.60;17.48;;;;;;;10.11;79.83;102008.22;5003284;28;20470;-84
2022/05/05 05:46:31;;;;;;;23.38;17.13;;;;;;;10.19;79.56;102011.28;4989158;28;20076;-85
2022/05/05 05:48:56;;;;;;;22.88;16.73;;;;;;;10.25;79.26;102011.00;5010240;28;20026;-85
2022/05/05 05:51:25;;;;;;;24.50;16.90;;;;;;;10.34;79.22;102015.75;5009566;28;20071;-83
2022/05/05 05:53:51;;;;;;;22.60;16.73;;;;;;;10.43;79.45;102007.38;5010200;28;20493;-85
2022/05/05 05:56:16;;;;;;;28.48;16.10;;;;;;;10.51;79.70;102013.06;5005752;28;20033;-85
2022/05/05 05:58:42;;;;;;;27.38;17.80;;;;;;;10.60;78.83;102015.19;4990299;28;20034;-84
2022/05/05 06:01:07;;;;;;;27.45;16.17;;;;;;;10.72;78.54;102018.91;4989850;28;20050;-85
2022/05/05 06:06:17;;;;;;;23.90;16.35;;;;;;;10.95;75.38;102017.63;5008911;28;20425;-85
2022/05/05 06:08:44;;;;;;;22.52;16.17;;;;;;;11.03;75.17;102025.94;4992305;28;20140;-85
2022/05/05 06:11:11;;;;;;;26.88;16.77;;;;;;;11.12;74.83;102024.56;5008834;28;20053;-85
2022/05/05 06:13:36;;;;;;;25.58;17.40;;;;;;;11.16;74.94;102023.44;5009707;28;20034;-85
2022/05/05 06:16:04;;;;;;;23.83;17.20;;;;;;;11.20;73.60;102020.53;5008014;28;20058;-85
2022/05/05 06:18:30;;;;;;;25.92;17.30;;;;;;;11.32;73.02;102018.16;4981532;28;20061;-85
2022/05/05 06:20:55;;;;;;;27.10;17.30;;;;;;;11.36;72.61;102017.03;4999221;28;20405;-85
2022/05/05 06:23:20;;;;;;;25.42;16.52;;;;;;;11.41;71.41;102026.34;5002195;28;20029;-84
2022/05/05 06:25:46;;;;;;;24.20;15.55;;;;;;;11.51;70.20;102027.50;4991440;28;20057;-85
2022/05/05 06:28:11;;;;;;;24.02;16.52;;;;;;;11.60;69.52;102023.47;5009316;28;20025;-84
2022/05/05 06:30:37;;;;;;;26.80;16.38;;;;;;;11.66;69.76;102023.13;4992087;28;20565;-84
2022/05/05 06:33:02;;;;;;;26.80;16.63;;;;;;;11.79;69.19;102032.03;5008237;28;20026;-84
2022/05/05 06:35:28;;;;;;;26.35;16.13;;;;;;;11.92;69.73;102032.13;5008052;28;20057;-85
2022/05/05 06:37:53;;;;;;;24.15;16.27;;;;;;;12.08;68.52;102026.78;5007759;28;20017;-85
2022/05/05 06:40:19;;;;;;;23.08;16.92;;;;;;;12.27;67.42;102029.97;5008570;28;20457;-80
2022/05/05 06:42:44;;;;;;;24.98;18.00;;;;;;;12.41;67.27;102029.97;5009694;28;20037;-79
2022/05/05 06:45:10;;;;;;;27.70;18.88;;;;;;;12.58;67.04;102028.91;5009568;28;20144;-80
2022/05/05 06:47:35;;;;;;;33.50;19.10;;;;;;;12.80;66.45;102031.00;4993883;28;20531;-79
2022/05/05 06:50:00;;;;;;;29.80;19.48;;;;;;;12.97;66.53;102041.34;5013956;28;20014;-79
2022/05/05 06:52:26;;;;;;;34.83;20.65;;;;;;;13.22;65.54;102031.88;5014027;28;20677;-80
2022/05/05 06:54:51;;;;;;;31.50;21.10;;;;;;;13.43;65.15;102043.63;5012915;28;20076;-80
2022/05/05 06:57:17;;;;;;;34.78;21.50;;;;;;;13.63;63.62;102037.88;4987640;28;20073;-79
2022/05/05 06:59:43;;;;;;;32.92;22.25;;;;;;;13.91;63.88;102041.25;4977147;28;20088;-80
2022/05/05 07:02:08;;;;;;;34.40;22.80;;;;;;;14.15;63.69;102042.22;5010735;28;20049;-79
2022/05/05 07:07:19;;;;;;;59.50;37.45;;;;;;;14.37;64.67;102038.88;4995946;28;20133;-76
2022/05/05 07:12:30;;;;;;;68.68;40.28;;;;;;;14.56;64.57;102054.38;5000219;28;20052;-87
2022/05/05 07:14:55;;;;;;;61.22;39.00;;;;;;;14.81;63.51;102045.47;5010788;28;20026;-88
2022/05/05 07:17:22;;;;;;;59.90;36.97;;;;;;;15.09;62.32;102057.56;5013472;28;20033;-87
2022/05/05 07:19:50;;;;;;;57.85;38.22;;;;;;;15.30;61.60;102061.31;5014156;28;20099;-89
2022/05/05 07:22:19;;;;;;;56.38;36.47;;;;;;;15.65;60.68;102062.19;5013487;28;20049;-88
2022/05/05 07:24:46;;;;;;;56.78;36.22;;;;;;;15.93;60.80;102060.91;5013488;28;20030;-89
2022/05/05 07:27:12;;;;;;;58.45;38.58;;;;;;;16.22;59.52;102060.44;5011397;28;20092;-88
2022/05/05 07:29:37;;;;;;;60.95;37.80;;;;;;;16.44;58.63;102060.47;4979329;28;20030;-88
2022/05/05 07:32:04;;;;;;;54.33;36.17;;;;;;;16.56;57.50;102061.28;4992826;28;20026;-89
2022/05/05 07:34:29;;;;;;;57.33;37.65;;;;;;;16.69;57.17;102058.53;4996278;28;20042;-90
2022/05/05 07:36:55;;;;;;;60.05;39.35;;;;;;;16.78;56.36;102061.28;5013067;28;20099;-88
2022/05/05 07:39:20;;;;;;;59.22;37.40;;;;;;;17.00;56.03;102059.53;4979654;28;20067;-90
2022/05/05 07:41:46;;;;;;;58.53;38.20;;;;;;;17.21;56.32;102066.63;4991994;28;20029;-89
2022/05/05 07:44:11;;;;;;;55.33;35.58;;;;;;;17.38;54.88;102067.88;4995656;28;20026;-89
2022/05/05 07:46:42;;;;;;;48.55;33.85;;;;;;;17.67;55.43;102072.63;4978627;28;20575;-89
2022/05/05 07:49:08;;;;;;;50.17;34.22;;;;;;;18.07;54.50;102062.91;4989527;28;20034;-89
2022/05/05 07:51:34;;;;;;;53.22;34.95;;;;;;;18.51;52.07;102068.00;5012979;28;20022;-89
2022/05/05 07:56:44;;;;;;;48.33;32.05;;;;;;;18.94;50.78;102054.38;4999446;28;20374;-90
2022/05/05 07:59:10;;;;;;;48.10;32.83;;;;;;;19.11;51.46;102061.69;5003583;28;20033;-90
2022/05/05 08:01:36;;;;;;;46.70;32.97;;;;;;;19.23;49.67;102060.59;5012939;28;20040;-90
2022/05/05 08:04:01;;;;;;;47.88;32.63;;;;;;;19.16;49.97;102067.47;5005664;28;20526;-90
2022/05/05 08:06:34;;;;;;;45.83;32.83;;;;;;;18.99;50.66;102066.31;5013339;28;20160;-90
2022/05/05 08:08:59;;;;;;;52.20;34.03;;;;;;;18.76;51.17;102071.03;5011959;28;20048;-90
2022/05/05 08:11:25;;;;;;;46.88;33.20;;;;;;;18.62;50.73;102065.25;5013072;28;20112;-90
2022/05/05 08:13:54;;;;;;;38.00;27.90;;;;;;;18.35;51.46;102076.47;5012241;28;20447;-90
2022/05/05 08:16:19;;;;;;;36.67;26.15;;;;;;;18.00;51.80;102075.03;5011418;28;20033;-90
2022/05/05 08:18:45;;;;;;;33.20;25.83;;;;;;;17.89;51.83;102079.59;4997304;28;20121;-90
2022/05/05 08:21:10;;;;;;;37.35;25.45;;;;;;;17.84;53.16;102080.84;5014136;28;20470;-90
2022/05/05 08:23:37;;;;;;;39.47;26.40;;;;;;;17.61;52.72;102079.28;5014211;28;20048;-90
2022/05/05 08:28:47;;;;;;;37.72;26.85;;;;;;;17.41;53.11;102083.59;5014608;28;20456;-91
2022/05/05 08:31:12;;;;;;;37.15;27.33;;;;;;;17.23;53.70;102085.97;5013909;28;20502;-89
2022/05/05 08:33:42;;;;;;;36.15;26.38;;;;;;;17.10;54.01;102089.72;4998158;28;20046;-91
2022/05/05 08:36:09;;;;;;;35.38;26.20;;;;;;;17.04;53.70;102091.06;4997108;28;20503;-91
2022/05/05 08:38:34;;;;;;;37.75;25.83;;;;;;;17.01;54.42;102093.16;5013503;28;20097;-91
2022/05/05 08:41:01;;;;;;;52.83;35.63;;;;;;;16.97;56.14;102094.38;5014510;28;20042;-91
2022/05/05 08:43:26;;;;;;;56.55;38.50;;;;;;;16.82;56.51;102101.78;4999083;28;20026;-90
2022/05/05 08:45:54;;;;;;;55.30;37.38;;;;;;;16.83;57.59;102106.97;5022402;28;20052;-89
2022/05/05 08:48:20;;;;;;;53.80;35.85;;;;;;;16.67;56.24;102105.63;5005972;28;20060;-85
2022/05/05 08:50:52;;;;;;;56.90;37.10;;;;;;;16.54;57.37;102111.06;5004779;28;20393;-86
2022/05/05 08:53:19;;;;;;;56.15;37.25;;;;;;;16.55;58.15;102115.41;5028005;28;20026;-89
2022/05/05 08:55:45;;;;;;;54.40;37.13;;;;;;;16.64;57.12;102106.69;5010859;28;20041;-86
2022/05/05 08:58:10;;;;;;;54.20;35.72;;;;;;;16.69;57.37;102111.69;5001843;28;20072;-90
2022/05/05 09:00:36;;;;;;;53.42;35.55;;;;;;;16.77;57.01;102114.56;5017861;28;20033;-85
2022/05/05 09:03:04;;;;;;;54.58;35.72;;;;;;;16.82;57.11;102107.09;5011641;28;20567;-88
2022/05/05 09:05:42;;;;;;;49.95;34.53;;;;;;;16.84;56.69;102107.81;5030519;28;20103;-86
2022/05/05 09:08:08;;;;;;;52.60;34.60;;;;;;;16.85;56.52;102113.00;5029187;28;20041;-86
2022/05/05 09:10:42;;;;;;;51.30;34.78;;;;;;;16.98;56.29;102117.31;5028857;28;20371;-87
2022/05/05 09:13:08;;;;;;;49.38;33.35;;;;;;;17.06;57.03;102115.72;5017321;28;20041;-85
2022/05/05 09:15:35;;;;;;;52.83;34.00;;;;;;;17.05;55.88;102115.84;4994983;28;20027;-85
2022/05/05 09:18:11;;;;;;;49.50;33.58;;;;;;;17.07;55.94;102122.75;5013443;28;20588;-85
2022/05/05 09:20:36;;;;;;;52.08;35.40;;;;;;;16.96;55.90;102120.09;5017874;28;20018;-86
2022/05/05 09:23:01;;;;;;;51.58;36.15;;;;;;;16.83;56.18;102120.25;4980364;28;20022;-87
2022/05/05 09:25:44;;;;;;;50.60;35.92;;;;;;;16.78;57.16;102122.41;4988112;28;20029;-88
2022/05/05 09:28:17;;;;;;;50.95;35.15;;;;;;;16.69;57.26;102128.47;4993494;28;20054;-88
2022/05/05 09:30:51;;;;;;;52.78;36.28;;;;;;;16.61;58.07;102122.88;5011523;28;20037;-87
2022/05/05 09:33:43;;;;;;;50.15;35.03;;;;;;;16.69;57.73;102127.63;5009617;28;20101;-86
2022/05/05 09:36:13;;;;;;;52.22;36.45;;;;;;;16.57;57.68;102134.72;4975084;28;20042;-88
2022/05/05 09:39:03;;;;;;;52.03;36.10;;;;;;;16.61;57.95;102130.84;4983344;28;20509;-88
2022/05/05 09:41:34;;;;;;;51.22;35.85;;;;;;;16.62;57.78;102124.56;5011245;28;20051;-88
2022/05/05 09:44:12;;;;;;;54.80;36.75;;;;;;;16.70;58.01;102130.16;5011314;28;20021;-88
2022/05/05 09:46:45;;;;;;;54.42;36.70;;;;;;;16.72;57.84;102136.19;5010112;28;20041;-88
2022/05/05 09:49:16;;;;;;;58.72;36.42;;;;;;;16.79;58.03;102134.72;5009428;28;20028;-89
2022/05/05 09:57:42;;;;;;;52.05;35.88;;;;;;;17.26;56.57;102140.72;4990970;28;19932;-87
2022/05/05 10:05:45;;;;;;;52.42;36.05;;;;;;;17.56;55.22;102140.00;4991465;28;20122;-88
2022/05/05 10:08:15;;;;;;;51.20;35.90;;;;;;;17.63;55.25;102141.19;4991222;28;20410;-88
2022/05/05 10:10:42;;;;;;;50.58;36.08;;;;;;;17.65;54.42;102138.41;4998528;28;20032;-88
2022/05/05 10:13:08;;;;;;;49.83;35.15;;;;;;;17.73;54.39;102143.97;4989382;28;20447;-88
2022/05/05 10:15:35;;;;;;;52.55;37.08;;;;;;;17.82;53.92;102141.38;4994481;28;20025;-88
2022/05/05 10:18:04;;;;;;;55.33;37.38;;;;;;;17.78;52.88;102139.09;4997643;28;20030;-87
2022/05/05 10:20:33;;;;;;;51.88;36.70;;;;;;;17.74;53.82;102140.34;5010502;28;20595;-88
2022/05/05 10:23:21;;;;;;;52.08;37.30;;;;;;;17.75;54.21;102134.88;4992449;28;20091;-88
2022/05/05 10:25:53;;;;;;;53.13;35.97;;;;;;;17.74;54.42;102149.16;5010375;28;20022;-88
2022/05/05 10:28:38;;;;;;;53.07;36.23;;;;;;;17.92;54.77;102152.09;4992932;28;20117;-88
2022/05/05 10:31:34;;;;;;;49.67;36.47;;;;;;;18.06;54.13;102145.63;4991275;28;20041;-88
2022/05/05 10:34:09;;;;;;;50.17;34.97;;;;;;;18.16;52.90;102142.03;4991433;28;20280;-88
2022/05/05 10:36:36;;;;;;;48.78;36.15;;;;;;;18.37;52.79;102146.47;4983808;28;20044;-87
2022/05/05 10:39:19;;;;;;;48.05;35.65;;;;;;;18.55;52.73;102144.06;4984561;28;20387;-88
2022/05/05 10:41:45;;;;;;;46.05;34.92;;;;;;;18.54;50.74;102143.22;4990855;28;20031;-88
2022/05/05 10:44:16;;;;;;;48.60;36.00;;;;;;;18.66;51.21;102158.16;4990673;28;20026;-88
2022/05/05 10:47:05;;;;;;;46.47;34.67;;;;;;;18.71;51.26;102150.59;4973097;28;20113;-88
2022/05/05 10:49:30;;;;;;;47.08;34.80;;;;;;;18.79;50.41;102141.94;4991503;28;20057;-88
2022/05/05 10:52:08;;;;;;;43.65;32.58;;;;;;;19.12;51.36;102143.44;4994816;28;20029;-87
2022/05/05 10:54:34;;;;;;;46.50;32.95;;;;;;;19.32;49.79;102138.97;5005512;28;20401;-88
2022/05/05 10:57:27;;;;;;;46.45;33.63;;;;;;;19.44;50.39;102134.34;5010106;28;20029;-88
2022/05/05 11:00:12;;;;;;;;;;;;;;;19.64;50.93;102133.41;5009628;28;20502;-88
2022/05/05 11:02:40;;;;;;;44.22;32.67;;;;;;;19.58;48.28;102136.63;4993058;28;19920;-88
2022/05/05 11:05:20;;;;;;;45.15;32.20;;;;;;;19.64;49.46;102136.09;5010669;28;20029;-88
2022/05/05 11:07:49;;;;;;;45.75;32.95;;;;;;;19.49;48.14;102132.09;5009614;28;20040;-87
2022/05/05 11:13:47;;;;;;;45.85;33.53;;;;;;;19.81;48.85;102134.53;5009497;28;20453;-88
2022/05/05 11:22:18;;;;;;;45.58;32.28;;;;;;;20.04;47.45;102127.88;5002635;28;20510;-89
2022/05/05 11:24:48;;;;;;;41.78;31.15;;;;;;;20.33;46.97;102130.47;4978330;28;20026;-88
2022/05/05 11:27:18;;;;;;;40.45;31.00;;;;;;;20.51;45.80;102130.59;5009559;28;20571;-88
2022/05/05 11:29:57;;;;;;;42.35;31.63;;;;;;;20.81;46.72;102130.31;5010033;28;20018;-88
2022/05/05 11:32:33;;;;;;;44.53;31.40;;;;;;;20.83;46.10;102130.16;4985721;28;20032;-87
2022/05/05 11:34:59;;;;;;;38.63;30.48;;;;;;;20.85;45.86;102130.88;4974651;28;20030;-88
2022/05/05 11:37:29;;;;;;;43.00;31.33;;;;;;;21.02;44.98;102132.72;4993929;28;20053;-88
2022/05/05 11:39:55;;;;;;;37.80;30.23;;;;;;;21.23;43.25;102130.66;4993707;28;20026;-88
2022/05/05 11:42:20;;;;;;;38.08;30.27;;;;;;;21.40;43.25;102120.94;5009751;28;20513;-87
2022/05/05 11:44:46;;;;;;;37.45;29.48;;;;;;;21.49;43.64;102129.88;4995209;28;20025;-86
2022/05/05 11:47:20;;;;;;;35.65;27.88;;;;;;;21.87;43.22;102126.84;4996098;28;20029;-90
2022/05/05 11:49:47;;;;;;;36.42;29.45;;;;;;;21.81;41.41;102124.81;5013237;28;20036;-87
2022/05/05 11:52:24;;;;;;;41.72;30.55;;;;;;;21.59;42.15;102127.97;4994898;28;20022;-87
2022/05/05 11:54:54;;;;;;;37.60;29.17;;;;;;;21.40;42.86;102115.59;5000813;28;20053;-89
2022/05/05 11:57:36;;;;;;;36.08;28.25;;;;;;;21.61;44.08;102117.94;4995941;28;20446;-88
2022/05/05 12:03:00;;;;;;;34.58;28.10;;;;;;;21.79;43.05;102116.09;5011722;28;20056;-86
2022/05/05 12:05:26;;;;;;;32.88;26.40;;;;;;;21.82;41.97;102122.97;4993487;28;20060;-87